createdAt,value
2022-08-11T00:02:15.039Z,1.40
2022-08-11T00:07:19.181Z,1.40
2022-08-11T00:12:23.148Z,1.20
2022-08-11T00:17:31.777Z,1.60
2022-08-11T00:22:36.928Z,1.40
2022-08-11T00:27:42.429Z,1.40
2022-08-11T00:32:55.289Z,1.50
2022-08-11T00:38:00.676Z,1.45
2022-08-11T00:43:20.456Z,1.50
2022-08-11T00:48:30.840Z,1.48
2022-08-11T00:53:47.879Z,1.50
2022-08-11T00:59:34.958Z,1.50
2022-08-11T01:05:12.818Z,1.30
2022-08-11T01:10:55.120Z,1.60
2022-08-11T01:16:30.528Z,1.60
2022-08-11T01:22:10.771Z,1.70
2022-08-11T01:28:08.977Z,1.48
2022-08-11T01:34:09.495Z,1.33
2022-08-11T01:39:47.392Z,1.60
2022-08-11T01:45:24.060Z,1.50
2022-08-11T01:50:40.569Z,1.73
2022-08-11T01:55:58.636Z,1.33
2022-08-11T02:01:12.552Z,1.60
2022-08-11T02:06:41.325Z,1.88
2022-08-11T02:11:49.001Z,1.50
2022-08-11T02:17:08.498Z,1.58
2022-08-11T02:22:40.823Z,1.38
2022-08-11T02:27:50.454Z,1.73
2022-08-11T02:33:22.891Z,1.58
2022-08-11T02:38:32.280Z,1.63
2022-08-11T02:43:51.901Z,1.45
2022-08-11T02:49:24.667Z,1.50
2022-08-11T02:54:33.997Z,1.70
2022-08-11T02:59:54.501Z,1.65
2022-08-11T03:05:08.242Z,1.50
2022-08-11T03:10:19.792Z,1.70
2022-08-11T03:16:01.696Z,1.30
2022-08-11T03:21:12.265Z,1.40
2022-08-11T03:26:29.227Z,1.48
2022-08-11T03:31:38.372Z,1.33
2022-08-11T03:37:16.861Z,1.60
2022-08-11T03:42:29.813Z,1.50
2022-08-11T03:47:55.141Z,1.55
2022-08-11T03:53:16.377Z,1.35
2022-08-11T03:58:47.955Z,1.52
2022-08-11T04:04:08.405Z,1.60
2022-08-11T04:10:04.172Z,1.35
2022-08-11T04:15:43.622Z,1.40
2022-08-11T04:21:25.674Z,1.48
2022-08-11T04:26:57.386Z,1.27
2022-08-11T04:32:30.090Z,1.50
2022-08-11T04:38:07.822Z,1.40
2022-08-11T04:44:02.806Z,1.55
2022-08-11T04:49:56.895Z,1.30
2022-08-11T04:55:40.598Z,1.45
2022-08-11T05:01:14.844Z,1.65
2022-08-11T05:06:59.583Z,1.73
2022-08-11T05:12:30.559Z,1.60
2022-08-11T05:17:58.134Z,2.53
2022-08-11T05:23:23.671Z,1.70
2022-08-11T05:28:51.138Z,1.65
2022-08-11T05:34:18.378Z,1.48
2022-08-11T05:39:42.928Z,1.30
2022-08-11T05:45:04.941Z,1.20
2022-08-11T05:50:40.148Z,1.25
2022-08-11T05:56:03.835Z,1.25
2022-08-11T06:01:08.155Z,1.25
2022-08-11T06:06:13.435Z,1.13
2022-08-11T06:11:19.021Z,1.30
2022-08-11T06:16:43.823Z,1.20
2022-08-11T06:21:51.999Z,1.33
2022-08-11T06:27:13.413Z,1.40
2022-08-11T06:32:17.961Z,1.25
2022-08-11T06:37:35.900Z,1.40
2022-08-11T06:42:53.283Z,1.30
2022-08-11T06:48:00.971Z,1.10
2022-08-11T06:53:09.998Z,1.25
2022-08-11T06:58:35.358Z,1.35
2022-08-11T07:03:43.854Z,1.23
2022-08-11T07:09:52.192Z,1.25
2022-08-11T07:16:11.010Z,1.27
2022-08-11T07:21:50.574Z,1.30
2022-08-11T07:26:51.484Z,1.38
2022-08-11T07:32:02.234Z,1.10
2022-08-11T07:37:12.661Z,1.45
2022-08-11T07:42:19.246Z,1.35
2022-08-11T07:47:44.910Z,1.20
2022-08-11T07:52:52.863Z,1.17
2022-08-11T07:58:20.136Z,1.55
2022-08-11T08:03:54.104Z,1.40
2022-08-11T08:09:16.096Z,1.42
2022-08-11T08:14:36.996Z,1.50
2022-08-11T08:19:44.428Z,1.88
2022-08-11T08:24:48.568Z,1.20
2022-08-11T08:30:09.390Z,1.38
2022-08-11T08:35:14.247Z,1.17
2022-08-11T08:40:17.533Z,1.05
2022-08-11T08:45:21.738Z,1.30
2022-08-11T08:50:49.737Z,1.25
2022-08-11T08:55:56.974Z,1.50
2022-08-11T09:01:02.151Z,1.13
2022-08-11T09:06:08.018Z,1.30
2022-08-11T09:11:30.530Z,1.30
2022-08-11T09:16:34.007Z,1.63
2022-08-11T09:21:48.782Z,1.08
2022-08-11T09:27:03.001Z,1.23
2022-08-11T09:32:07.345Z,1.10
2022-08-11T09:37:54.607Z,1.00
2022-08-11T09:43:10.836Z,0.95
2022-08-11T09:48:14.209Z,0.88
2022-08-11T09:53:37.343Z,0.98
2022-08-11T09:58:45.871Z,1.00
2022-08-11T10:03:49.562Z,1.02
2022-08-11T10:08:55.839Z,1.20
2022-08-11T10:14:31.760Z,1.33
2022-08-11T10:19:40.203Z,0.98
2022-08-11T10:25:19.909Z,1.20
2022-08-11T10:30:57.519Z,0.98
2022-08-11T10:36:02.887Z,1.95
2022-08-11T10:41:24.920Z,1.20
2022-08-11T10:46:48.129Z,0.80
2022-08-11T10:52:09.689Z,0.70
2022-08-11T10:57:34.554Z,1.25
2022-08-11T11:02:38.585Z,1.10
2022-08-11T11:07:51.683Z,0.70
2022-08-11T11:13:16.612Z,1.15
2022-08-11T11:18:23.564Z,0.90
2022-08-11T11:23:29.575Z,1.23
2022-08-11T11:28:55.100Z,1.20
2022-08-11T11:34:13.238Z,0.88
2022-08-11T11:39:20.190Z,0.82
2022-08-11T11:44:26.304Z,0.85
2022-08-11T11:49:32.443Z,0.82
2022-08-11T11:54:36.995Z,0.70
2022-08-11T11:59:58.974Z,0.80
2022-08-11T12:05:02.909Z,0.68
2022-08-11T12:10:08.625Z,0.70
2022-08-11T12:15:13.960Z,0.90
2022-08-11T12:20:34.215Z,0.90
2022-08-11T12:26:23.418Z,0.93
2022-08-11T12:31:26.078Z,1.00
2022-08-11T12:36:29.918Z,0.90
2022-08-11T12:41:52.951Z,1.20
2022-08-11T12:47:02.521Z,1.10
2022-08-11T12:52:14.580Z,1.10
2022-08-11T12:57:39.335Z,1.25
2022-08-11T13:03:01.714Z,1.50
2022-08-11T13:08:06.972Z,3.63
2022-08-11T13:13:52.694Z,1.45
2022-08-11T13:18:35.748Z,1.02
2022-08-11T13:23:40.192Z,0.98
2022-08-11T13:29:02.603Z,0.80
2022-08-11T13:34:09.318Z,0.70
2022-08-11T13:39:14.526Z,0.70
2022-08-11T13:44:24.832Z,0.70
2022-08-11T13:49:32.110Z,0.80
2022-08-11T13:54:39.428Z,0.70
2022-08-11T13:59:51.898Z,0.90
2022-08-11T14:05:00.301Z,0.80
2022-08-11T14:10:05.578Z,0.82
2022-08-11T14:15:20.110Z,0.88
2022-08-11T14:20:45.613Z,0.90
2022-08-11T14:26:07.076Z,1.05
2022-08-11T14:31:10.854Z,0.80
2022-08-11T14:36:15.797Z,1.30
2022-08-11T14:41:37.063Z,1.10
2022-08-11T14:47:24.350Z,0.90
2022-08-11T14:52:32.141Z,1.10
2022-08-11T14:57:55.650Z,0.98
2022-08-11T15:03:14.190Z,0.75
2022-08-11T15:08:20.151Z,0.90
2022-08-11T15:13:23.521Z,1.00
2022-08-11T15:18:27.264Z,0.80
2022-08-11T15:23:49.563Z,0.90
2022-08-11T15:29:11.850Z,0.95
2022-08-11T15:34:36.238Z,1.88
2022-08-11T15:40:31.735Z,1.13
2022-08-11T15:45:50.082Z,1.05
2022-08-11T15:50:56.868Z,1.10
2022-08-11T15:56:03.180Z,1.00
2022-08-11T16:01:26.328Z,1.35
2022-08-11T16:06:30.082Z,1.25
2022-08-11T16:11:36.200Z,0.98
2022-08-11T16:16:42.513Z,1.13
2022-08-11T16:21:46.868Z,1.00
2022-08-11T16:27:10.707Z,0.82
2022-08-11T16:32:21.773Z,0.98
2022-08-11T16:37:43.370Z,1.08
2022-08-11T16:43:10.926Z,1.00
2022-08-11T16:48:37.262Z,1.00
2022-08-11T16:54:03.555Z,0.93
2022-08-11T16:59:17.371Z,0.88
2022-08-11T17:04:44.850Z,0.98
2022-08-11T17:10:39.693Z,1.00
2022-08-11T17:15:51.024Z,0.88
2022-08-11T17:20:55.644Z,1.05
2022-08-11T17:26:04.195Z,0.80
2022-08-11T17:31:29.467Z,0.90
2022-08-11T17:36:33.276Z,0.70
2022-08-11T17:41:54.713Z,0.95
2022-08-11T17:47:17.172Z,0.80
2022-08-11T17:52:45.687Z,0.90
2022-08-11T17:58:08.118Z,1.20
2022-08-11T18:03:32.569Z,1.10
2022-08-11T18:08:58.146Z,0.82
2022-08-11T18:14:21.051Z,0.90
2022-08-11T18:19:43.169Z,0.90
2022-08-11T18:25:09.060Z,1.08
2022-08-11T18:30:30.055Z,1.30
2022-08-11T18:35:53.851Z,1.30
2022-08-11T18:41:15.400Z,1.52
2022-08-11T18:46:37.330Z,1.20
2022-08-11T18:52:03.496Z,1.38
2022-08-11T18:57:26.871Z,1.50
2022-08-11T19:02:50.149Z,1.38
2022-08-11T19:08:15.801Z,1.17
2022-08-11T19:13:41.436Z,1.48
2022-08-11T19:19:06.637Z,1.40
2022-08-11T19:24:30.090Z,1.52
2022-08-11T19:30:07.161Z,1.25
2022-08-11T19:35:34.053Z,1.30
2022-08-11T19:40:58.288Z,1.10
2022-08-11T19:46:20.589Z,0.90
2022-08-11T19:51:42.613Z,1.00
2022-08-11T19:57:06.290Z,1.10
2022-08-11T20:02:27.756Z,1.05
2022-08-11T20:07:49.586Z,1.10
2022-08-11T20:13:13.761Z,1.10
2022-08-11T20:18:44.270Z,0.90
2022-08-11T20:24:06.676Z,1.23
2022-08-11T20:29:29.934Z,1.00
2022-08-11T20:34:53.004Z,0.95
2022-08-11T20:40:15.387Z,1.00
2022-08-11T20:45:52.162Z,1.20
2022-08-11T20:51:18.818Z,1.10
2022-08-11T20:56:39.865Z,1.10
2022-08-11T21:02:03.211Z,0.90
2022-08-11T21:07:28.773Z,0.98
2022-08-11T21:12:51.212Z,0.98
2022-08-11T21:18:27.472Z,1.08
2022-08-11T21:23:51.955Z,1.38
2022-08-11T21:29:14.722Z,0.90
2022-08-11T21:34:41.080Z,1.30
2022-08-11T21:40:03.467Z,0.90
2022-08-11T21:45:27.598Z,1.08
2022-08-11T21:50:49.741Z,0.90
2022-08-11T21:56:12.314Z,1.05
2022-08-11T22:01:34.585Z,1.20
2022-08-11T22:06:57.639Z,0.90
2022-08-11T22:12:33.892Z,0.90
2022-08-11T22:17:58.053Z,0.82
2022-08-11T22:23:21.185Z,0.80
2022-08-11T22:28:42.757Z,0.80
2022-08-11T22:34:03.564Z,0.70
2022-08-11T22:39:26.555Z,1.00
2022-08-11T22:44:47.697Z,1.00
2022-08-11T22:50:14.237Z,0.90
2022-08-11T22:55:38.189Z,0.85
2022-08-11T23:00:59.661Z,0.90
2022-08-11T23:06:22.077Z,0.80
2022-08-11T23:11:57.163Z,0.85
2022-08-11T23:17:25.465Z,0.93
2022-08-11T23:22:50.253Z,0.85
2022-08-11T23:28:13.983Z,0.73
2022-08-11T23:33:36.770Z,0.70
2022-08-11T23:38:57.363Z,0.70
2022-08-11T23:44:21.102Z,0.82
2022-08-11T23:49:42.613Z,0.70
2022-08-11T23:55:04.348Z,0.80
